sensor_id;sensor_type;location;lat;lon;timestamp;P1;durP1;ratioP1;P2;durP2;ratioP2
1993;SDS011;998;49.906;10.908;2024-03-23T00:54:46;19.13;;;13.73;;
1993;SDS011;998;49.906;10.908;2024-03-23T00:57:12;14.67;;;11.13;;
1993;SDS011;998;49.906;10.908;2024-03-23T00:59:39;13.17;;;10.93;;
1993;SDS011;998;49.906;10.908;2024-03-23T01:02:05;16.20;;;11.90;;
1993;SDS011;998;49.906;10.908;2024-03-23T01:04:33;20.30;;;10.90;;
1993;SDS011;998;49.906;10.908;2024-03-23T01:06:59;19.33;;;13.83;;
1993;SDS011;998;49.906;10.908;2024-03-23T01:09:25;11.57;;;9.53;;
1993;SDS011;998;49.906;10.908;2024-03-23T01:11:53;14.77;;;12.17;;
1993;SDS011;998;49.906;10.908;2024-03-23T01:14:20;15.00;;;11.53;;
1993;SDS011;998;49.906;10.908;2024-03-23T01:16:45;14.10;;;11.00;;
1993;SDS011;998;49.906;10.908;2024-03-23T01:19:12;13.70;;;9.67;;
1993;SDS011;998;49.906;10.908;2024-03-23T01:21:38;20.63;;;16.60;;
1993;SDS011;998;49.906;10.908;2024-03-23T01:24:05;12.73;;;10.27;;
1993;SDS011;998;49.906;10.908;2024-03-23T01:26:31;23.60;;;12.57;;
1993;SDS011;998;49.906;10.908;2024-03-23T01:29:00;13.70;;;10.70;;
1993;SDS011;998;49.906;10.908;2024-03-23T01:31:25;17.20;;;14.97;;
1993;SDS011;998;49.906;10.908;2024-03-23T01:33:52;16.00;;;9.70;;
1993;SDS011;998;49.906;10.908;2024-03-23T01:36:18;18.53;;;13.80;;
1993;SDS011;998;49.906;10.908;2024-03-23T01:38:46;14.80;;;10.47;;
1993;SDS011;998;49.906;10.908;2024-03-23T01:41:12;15.43;;;11.33;;
1993;SDS011;998;49.906;10.908;2024-03-23T01:43:39;17.67;;;13.47;;
1993;SDS011;998;49.906;10.908;2024-03-23T01:46:07;14.20;;;12.27;;
1993;SDS011;998;49.906;10.908;2024-03-23T01:48:35;13.23;;;9.60;;
1993;SDS011;998;49.906;10.908;2024-03-23T01:51:02;15.30;;;11.47;;
1993;SDS011;998;49.906;10.908;2024-03-23T01:53:30;14.87;;;10.90;;
1993;SDS011;998;49.906;10.908;2024-03-23T01:55:57;17.77;;;15.67;;
1993;SDS011;998;49.906;10.908;2024-03-23T01:58:24;16.97;;;14.30;;
1993;SDS011;998;49.906;10.908;2024-03-23T02:00:51;16.60;;;12.87;;
1993;SDS011;998;49.906;10.908;2024-03-23T02:03:23;22.03;;;16.93;;
1993;SDS011;998;49.906;10.908;2024-03-23T02:05:49;17.70;;;14.50;;
1993;SDS011;998;49.906;10.908;2024-03-23T02:08:17;17.57;;;15.47;;
1993;SDS011;998;49.906;10.908;2024-03-23T02:10:45;17.17;;;11.70;;
1993;SDS011;998;49.906;10.908;2024-03-23T02:13:14;21.43;;;14.70;;
1993;SDS011;998;49.906;10.908;2024-03-23T02:15:40;18.50;;;14.80;;
1993;SDS011;998;49.906;10.908;2024-03-23T02:18:08;22.93;;;12.43;;
1993;SDS011;998;49.906;10.908;2024-03-23T02:20:36;17.90;;;13.53;;
1993;SDS011;998;49.906;10.908;2024-03-23T02:23:05;16.33;;;14.50;;
1993;SDS011;998;49.906;10.908;2024-03-23T02:25:38;22.43;;;14.90;;
1993;SDS011;998;49.906;10.908;2024-03-23T02:28:05;16.80;;;13.47;;
1993;SDS011;998;49.906;10.908;2024-03-23T02:30:32;16.83;;;13.37;;
1993;SDS011;998;49.906;10.908;2024-03-23T02:32:59;19.07;;;14.07;;
1993;SDS011;998;49.906;10.908;2024-03-23T02:35:26;18.67;;;13.70;;
1993;SDS011;998;49.906;10.908;2024-03-23T02:37:53;14.00;;;11.80;;
1993;SDS011;998;49.906;10.908;2024-03-23T02:40:22;15.50;;;10.60;;
1993;SDS011;998;49.906;10.908;2024-03-23T02:42:50;13.20;;;8.80;;
1993;SDS011;998;49.906;10.908;2024-03-23T02:45:16;18.23;;;14.83;;
1993;SDS011;998;49.906;10.908;2024-03-23T02:47:44;15.20;;;10.60;;
1993;SDS011;998;49.906;10.908;2024-03-23T02:50:10;12.50;;;10.20;;
1993;SDS011;998;49.906;10.908;2024-03-23T02:52:37;19.20;;;13.53;;
1993;SDS011;998;49.906;10.908;2024-03-23T02:55:04;13.53;;;10.50;;
1993;SDS011;998;49.906;10.908;2024-03-23T02:57:33;20.93;;;11.90;;
1993;SDS011;998;49.906;10.908;2024-03-23T02:59:59;20.67;;;13.83;;
1993;SDS011;998;49.906;10.908;2024-03-23T03:02:26;16.77;;;12.17;;
1993;SDS011;998;49.906;10.908;2024-03-23T03:04:53;12.97;;;10.77;;
1993;SDS011;998;49.906;10.908;2024-03-23T03:07:20;15.10;;;11.27;;
1993;SDS011;998;49.906;10.908;2024-03-23T03:09:46;17.40;;;13.97;;
1993;SDS011;998;49.906;10.908;2024-03-23T03:12:13;14.90;;;11.27;;
1993;SDS011;998;49.906;10.908;2024-03-23T03:14:41;16.63;;;11.83;;
1993;SDS011;998;49.906;10.908;2024-03-23T03:17:08;17.27;;;13.27;;
1993;SDS011;998;49.906;10.908;2024-03-23T03:19:34;13.73;;;11.13;;
1993;SDS011;998;49.906;10.908;2024-03-23T03:22:02;16.13;;;11.73;;
1993;SDS011;998;49.906;10.908;2024-03-23T03:24:29;14.33;;;12.53;;
1993;SDS011;998;49.906;10.908;2024-03-23T03:26:56;14.07;;;12.00;;
1993;SDS011;998;49.906;10.908;2024-03-23T03:29:23;21.10;;;11.77;;
1993;SDS011;998;49.906;10.908;2024-03-23T03:31:52;15.13;;;11.50;;
1993;SDS011;998;49.906;10.908;2024-03-23T03:34:18;15.47;;;11.50;;
1993;SDS011;998;49.906;10.908;2024-03-23T03:36:46;14.47;;;12.07;;
1993;SDS011;998;49.906;10.908;2024-03-23T03:39:12;15.13;;;10.97;;
1993;SDS011;998;49.906;10.908;2024-03-23T03:41:39;18.77;;;14.47;;
1993;SDS011;998;49.906;10.908;2024-03-23T03:44:06;16.23;;;11.00;;
1993;SDS011;998;49.906;10.908;2024-03-23T03:46:33;16.13;;;11.80;;
1993;SDS011;998;49.906;10.908;2024-03-23T03:49:01;17.13;;;12.40;;
1993;SDS011;998;49.906;10.908;2024-03-23T03:51:28;15.40;;;10.50;;
1993;SDS011;998;49.906;10.908;2024-03-23T03:53:55;15.70;;;9.60;;
1993;SDS011;998;49.906;10.908;2024-03-23T03:56:22;18.23;;;11.23;;
1993;SDS011;998;49.906;10.908;2024-03-23T03:58:49;13.33;;;10.43;;
1993;SDS011;998;49.906;10.908;2024-03-23T04:01:16;14.90;;;10.17;;
1993;SDS011;998;49.906;10.908;2024-03-23T04:03:43;13.97;;;10.10;;
1993;SDS011;998;49.906;10.908;2024-03-23T04:06:12;18.13;;;10.87;;
1993;SDS011;998;49.906;10.908;2024-03-23T04:08:43;14.50;;;10.77;;
1993;SDS011;998;49.906;10.908;2024-03-23T04:11:11;14.47;;;10.50;;
1993;SDS011;998;49.906;10.908;2024-03-23T04:13:37;20.30;;;11.43;;
1993;SDS011;998;49.906;10.908;2024-03-23T04:16:06;21.20;;;9.97;;
1993;SDS011;998;49.906;10.908;2024-03-23T04:18:34;14.70;;;11.60;;
1993;SDS011;998;49.906;10.908;2024-03-23T04:21:01;17.30;;;15.27;;
1993;SDS011;998;49.906;10.908;2024-03-23T04:23:29;14.30;;;10.70;;
1993;SDS011;998;49.906;10.908;2024-03-23T04:26:01;17.00;;;13.80;;
1993;SDS011;998;49.906;10.908;2024-03-23T04:28:29;15.03;;;13.47;;
1993;SDS011;998;49.906;10.908;2024-03-23T04:30:56;18.30;;;15.33;;
1993;SDS011;998;49.906;10.908;2024-03-23T04:33:23;17.70;;;15.30;;
1993;SDS011;998;49.906;10.908;2024-03-23T04:35:50;13.93;;;12.53;;
1993;SDS011;998;49.906;10.908;2024-03-23T04:38:16;15.90;;;13.20;;
1993;SDS011;998;49.906;10.908;2024-03-23T04:40:45;12.60;;;11.30;;
1993;SDS011;998;49.906;10.908;2024-03-23T04:43:21;18.20;;;15.80;;
1993;SDS011;998;49.906;10.908;2024-03-23T04:45:48;16.27;;;13.00;;
1993;SDS011;998;49.906;10.908;2024-03-23T04:48:15;16.47;;;10.97;;
1993;SDS011;998;49.906;10.908;2024-03-23T04:50:42;14.80;;;12.13;;
1993;SDS011;998;49.906;10.908;2024-03-23T04:53:09;13.90;;;10.37;;
1993;SDS011;998;49.906;10.908;2024-03-23T04:55:37;20.63;;;12.53;;
1993;SDS011;998;49.906;10.908;2024-03-23T04:58:05;17.83;;;10.70;;
1993;SDS011;998;49.906;10.908;2024-03-23T05:00:32;16.13;;;12.00;;
1993;SDS011;998;49.906;10.908;2024-03-23T05:02:59;15.23;;;11.73;;
1993;SDS011;998;49.906;10.908;2024-03-23T05:05:25;14.63;;;10.27;;
1993;SDS011;998;49.906;10.908;2024-03-23T05:07:53;15.87;;;12.67;;
1993;SDS011;998;49.906;10.908;2024-03-23T05:10:19;13.00;;;10.23;;
1993;SDS011;998;49.906;10.908;2024-03-23T05:12:46;16.60;;;12.00;;
1993;SDS011;998;49.906;10.908;2024-03-23T05:15:14;16.87;;;13.67;;
1993;SDS011;998;49.906;10.908;2024-03-23T05:17:42;16.87;;;13.80;;
1993;SDS011;998;49.906;10.908;2024-03-23T05:20:08;15.20;;;12.30;;
1993;SDS011;998;49.906;10.908;2024-03-23T05:22:37;14.63;;;12.97;;
1993;SDS011;998;49.906;10.908;2024-03-23T05:25:04;18.77;;;14.03;;
1993;SDS011;998;49.906;10.908;2024-03-23T05:27:32;18.73;;;11.87;;
1993;SDS011;998;49.906;10.908;2024-03-23T05:29:59;22.37;;;13.90;;
1993;SDS011;998;49.906;10.908;2024-03-23T05:32:28;22.00;;;12.70;;
1993;SDS011;998;49.906;10.908;2024-03-23T05:34:54;15.20;;;11.70;;
1993;SDS011;998;49.906;10.908;2024-03-23T05:37:22;17.30;;;14.13;;
1993;SDS011;998;49.906;10.908;2024-03-23T05:39:48;13.93;;;11.60;;
1993;SDS011;998;49.906;10.908;2024-03-23T05:42:16;16.70;;;13.40;;
1993;SDS011;998;49.906;10.908;2024-03-23T05:44:43;19.30;;;14.90;;
1993;SDS011;998;49.906;10.908;2024-03-23T05:47:11;21.00;;;14.50;;
1993;SDS011;998;49.906;10.908;2024-03-23T05:49:39;17.30;;;12.90;;
1993;SDS011;998;49.906;10.908;2024-03-23T05:52:08;16.27;;;11.83;;
1993;SDS011;998;49.906;10.908;2024-03-23T05:54:34;14.60;;;12.83;;
1993;SDS011;998;49.906;10.908;2024-03-23T05:57:02;18.40;;;15.00;;
1993;SDS011;998;49.906;10.908;2024-03-23T05:59:28;15.30;;;13.47;;
1993;SDS011;998;49.906;10.908;2024-03-23T06:01:56;12.67;;;10.20;;
1993;SDS011;998;49.906;10.908;2024-03-23T06:04:23;17.60;;;13.77;;
1993;SDS011;998;49.906;10.908;2024-03-23T06:06:52;23.67;;;13.50;;
1993;SDS011;998;49.906;10.908;2024-03-23T06:09:18;17.70;;;12.23;;
1993;SDS011;998;49.906;10.908;2024-03-23T06:11:45;15.87;;;13.77;;
1993;SDS011;998;49.906;10.908;2024-03-23T06:14:12;17.87;;;12.00;;
1993;SDS011;998;49.906;10.908;2024-03-23T06:16:39;20.17;;;15.80;;
1993;SDS011;998;49.906;10.908;2024-03-23T06:19:05;21.17;;;15.10;;
1993;SDS011;998;49.906;10.908;2024-03-23T06:21:33;16.73;;;12.73;;
1993;SDS011;998;49.906;10.908;2024-03-23T06:24:00;15.90;;;12.53;;
1993;SDS011;998;49.906;10.908;2024-03-23T06:26:28;17.27;;;12.53;;
1993;SDS011;998;49.906;10.908;2024-03-23T06:28:54;15.27;;;13.10;;
1993;SDS011;998;49.906;10.908;2024-03-23T06:31:22;20.00;;;13.40;;
1993;SDS011;998;49.906;10.908;2024-03-23T06:33:48;19.70;;;16.00;;
1993;SDS011;998;49.906;10.908;2024-03-23T06:36:15;14.33;;;12.07;;
1993;SDS011;998;49.906;10.908;2024-03-23T06:38:42;15.10;;;11.70;;
1993;SDS011;998;49.906;10.908;2024-03-23T06:41:11;17.30;;;14.37;;
1993;SDS011;998;49.906;10.908;2024-03-23T06:43:37;21.90;;;14.20;;
1993;SDS011;998;49.906;10.908;2024-03-23T06:46:05;18.47;;;13.43;;
1993;SDS011;998;49.906;10.908;2024-03-23T06:48:31;16.37;;;14.10;;
1993;SDS011;998;49.906;10.908;2024-03-23T06:50:58;12.60;;;11.30;;
1993;SDS011;998;49.906;10.908;2024-03-23T06:53:25;17.43;;;14.47;;
1993;SDS011;998;49.906;10.908;2024-03-23T06:55:52;14.70;;;11.73;;
1993;SDS011;998;49.906;10.908;2024-03-23T06:58:21;18.13;;;14.10;;
1993;SDS011;998;49.906;10.908;2024-03-23T07:00:50;16.23;;;12.80;;
1993;SDS011;998;49.906;10.908;2024-03-23T07:03:16;22.77;;;16.83;;
1993;SDS011;998;49.906;10.908;2024-03-23T07:05:44;13.50;;;11.77;;
1993;SDS011;998;49.906;10.908;2024-03-23T07:08:11;17.67;;;12.10;;
1993;SDS011;998;49.906;10.908;2024-03-23T07:10:43;10.33;;;8.30;;
1993;SDS011;998;49.906;10.908;2024-03-23T07:13:10;10.90;;;8.80;;
1993;SDS011;998;49.906;10.908;2024-03-23T07:15:39;12.13;;;8.80;;
1993;SDS011;998;49.906;10.908;2024-03-23T07:18:05;9.90;;;7.17;;
1993;SDS011;998;49.906;10.908;2024-03-23T07:20:32;12.00;;;8.70;;
1993;SDS011;998;49.906;10.908;2024-03-23T07:22:58;13.07;;;10.10;;
1993;SDS011;998;49.906;10.908;2024-03-23T07:25:26;12.30;;;8.03;;
1993;SDS011;998;49.906;10.908;2024-03-23T07:27:54;9.80;;;6.93;;
1993;SDS011;998;49.906;10.908;2024-03-23T07:30:21;8.80;;;6.30;;
1993;SDS011;998;49.906;10.908;2024-03-23T07:32:49;16.20;;;12.20;;
1993;SDS011;998;49.906;10.908;2024-03-23T07:35:16;9.67;;;7.23;;
1993;SDS011;998;49.906;10.908;2024-03-23T07:37:44;14.40;;;8.67;;
1993;SDS011;998;49.906;10.908;2024-03-23T07:40:12;10.47;;;7.40;;
1993;SDS011;998;49.906;10.908;2024-03-23T07:42:39;7.10;;;5.30;;
1993;SDS011;998;49.906;10.908;2024-03-23T07:45:07;15.60;;;9.73;;
1993;SDS011;998;49.906;10.908;2024-03-23T07:47:34;10.80;;;8.03;;
1993;SDS011;998;49.906;10.908;2024-03-23T07:50:04;10.27;;;6.70;;
1993;SDS011;998;49.906;10.908;2024-03-23T07:52:31;8.60;;;5.83;;
1993;SDS011;998;49.906;10.908;2024-03-23T07:54:58;9.60;;;6.47;;
1993;SDS011;998;49.906;10.908;2024-03-23T07:57:24;12.30;;;7.87;;
1993;SDS011;998;49.906;10.908;2024-03-23T07:59:52;10.97;;;7.23;;
1993;SDS011;998;49.906;10.908;2024-03-23T08:02:18;10.13;;;7.07;;
1993;SDS011;998;49.906;10.908;2024-03-23T08:04:45;11.03;;;6.73;;
1993;SDS011;998;49.906;10.908;2024-03-23T08:07:13;11.87;;;7.07;;
1993;SDS011;998;49.906;10.908;2024-03-23T08:09:40;8.90;;;6.47;;
1993;SDS011;998;49.906;10.908;2024-03-23T08:12:07;16.47;;;11.60;;
1993;SDS011;998;49.906;10.908;2024-03-23T08:14:34;15.47;;;6.93;;
1993;SDS011;998;49.906;10.908;2024-03-23T08:17:00;9.20;;;7.00;;
1993;SDS011;998;49.906;10.908;2024-03-23T08:19:28;12.83;;;7.60;;
1993;SDS011;998;49.906;10.908;2024-03-23T08:21:54;9.47;;;7.07;;
1993;SDS011;998;49.906;10.908;2024-03-23T08:24:23;11.90;;;8.20;;
1993;SDS011;998;49.906;10.908;2024-03-23T08:26:49;9.57;;;6.00;;
1993;SDS011;998;49.906;10.908;2024-03-23T08:29:16;14.93;;;7.33;;
1993;SDS011;998;49.906;10.908;2024-03-23T08:31:43;10.97;;;7.50;;
1993;SDS011;998;49.906;10.908;2024-03-23T08:34:10;12.57;;;8.43;;
1993;SDS011;998;49.906;10.908;2024-03-23T08:36:36;11.30;;;7.70;;
1993;SDS011;998;49.906;10.908;2024-03-23T08:39:04;9.30;;;6.17;;
1993;SDS011;998;49.906;10.908;2024-03-23T08:41:31;8.33;;;5.93;;
1993;SDS011;998;49.906;10.908;2024-03-23T08:43:59;13.57;;;10.00;;
1993;SDS011;998;49.906;10.908;2024-03-23T08:46:25;11.07;;;7.53;;
1993;SDS011;998;49.906;10.908;2024-03-23T08:48:53;9.67;;;6.77;;
1993;SDS011;998;49.906;10.908;2024-03-23T08:51:19;4.47;;;2.90;;
1993;SDS011;998;49.906;10.908;2024-03-23T08:53:46;7.50;;;4.83;;
1993;SDS011;998;49.906;10.908;2024-03-23T08:56:13;5.00;;;2.97;;
1993;SDS011;998;49.906;10.908;2024-03-23T08:58:42;5.30;;;3.50;;
1993;SDS011;998;49.906;10.908;2024-03-23T09:01:09;8.87;;;6.00;;
1993;SDS011;998;49.906;10.908;2024-03-23T09:03:38;5.73;;;3.80;;
1993;SDS011;998;49.906;10.908;2024-03-23T09:06:06;5.30;;;3.20;;
1993;SDS011;998;49.906;10.908;2024-03-23T09:08:34;7.97;;;5.20;;
1993;SDS011;998;49.906;10.908;2024-03-23T09:11:03;9.37;;;6.73;;
1993;SDS011;998;49.906;10.908;2024-03-23T09:13:32;8.43;;;6.10;;
1993;SDS011;998;49.906;10.908;2024-03-23T09:16:00;7.20;;;5.10;;
1993;SDS011;998;49.906;10.908;2024-03-23T09:20:58;6.23;;;4.00;;
1993;SDS011;998;49.906;10.908;2024-03-23T09:23:24;9.80;;;6.70;;
1993;SDS011;998;49.906;10.908;2024-03-23T09:25:51;7.50;;;5.47;;
1993;SDS011;998;49.906;10.908;2024-03-23T09:28:18;11.77;;;8.53;;
1993;SDS011;998;49.906;10.908;2024-03-23T09:30:45;9.50;;;6.77;;
1993;SDS011;998;49.906;10.908;2024-03-23T09:33:13;10.07;;;7.20;;
1993;SDS011;998;49.906;10.908;2024-03-23T09:35:42;9.20;;;6.73;;
1993;SDS011;998;49.906;10.908;2024-03-23T09:38:09;7.40;;;4.70;;
1993;SDS011;998;49.906;10.908;2024-03-23T09:40:40;7.00;;;4.47;;
1993;SDS011;998;49.906;10.908;2024-03-23T09:43:07;7.67;;;4.93;;
1993;SDS011;998;49.906;10.908;2024-03-23T09:45:36;10.40;;;7.27;;
1993;SDS011;998;49.906;10.908;2024-03-23T09:48:05;8.50;;;6.00;;
1993;SDS011;998;49.906;10.908;2024-03-23T09:50:37;11.20;;;8.47;;
1993;SDS011;998;49.906;10.908;2024-03-23T09:53:04;7.87;;;5.50;;
1993;SDS011;998;49.906;10.908;2024-03-23T09:55:33;8.03;;;5.23;;
1993;SDS011;998;49.906;10.908;2024-03-23T09:58:00;10.00;;;6.97;;
1993;SDS011;998;49.906;10.908;2024-03-23T10:00:28;7.83;;;5.37;;
1993;SDS011;998;49.906;10.908;2024-03-23T10:02:55;6.20;;;3.70;;
1993;SDS011;998;49.906;10.908;2024-03-23T10:05:23;8.00;;;5.80;;
1993;SDS011;998;49.906;10.908;2024-03-23T10:07:51;6.23;;;4.17;;
1993;SDS011;998;49.906;10.908;2024-03-23T10:10:18;7.87;;;5.60;;
1993;SDS011;998;49.906;10.908;2024-03-23T10:12:46;8.03;;;5.23;;
1993;SDS011;998;49.906;10.908;2024-03-23T10:15:18;7.97;;;5.00;;
1993;SDS011;998;49.906;10.908;2024-03-23T10:17:45;11.20;;;8.23;;
1993;SDS011;998;49.906;10.908;2024-03-23T10:20:13;8.07;;;6.17;;
1993;SDS011;998;49.906;10.908;2024-03-23T10:22:44;9.87;;;7.30;;
1993;SDS011;998;49.906;10.908;2024-03-23T10:25:13;9.07;;;5.37;;
1993;SDS011;998;49.906;10.908;2024-03-23T10:27:40;8.33;;;5.57;;
1993;SDS011;998;49.906;10.908;2024-03-23T10:30:08;8.00;;;5.67;;
1993;SDS011;998;49.906;10.908;2024-03-23T10:32:36;9.67;;;6.20;;
1993;SDS011;998;49.906;10.908;2024-03-23T10:35:13;7.63;;;5.43;;
1993;SDS011;998;49.906;10.908;2024-03-23T10:37:41;9.37;;;6.93;;
1993;SDS011;998;49.906;10.908;2024-03-23T10:40:10;8.20;;;5.47;;
1993;SDS011;998;49.906;10.908;2024-03-23T10:42:39;12.63;;;8.63;;
1993;SDS011;998;49.906;10.908;2024-03-23T10:45:07;8.27;;;6.47;;
1993;SDS011;998;49.906;10.908;2024-03-23T10:47:34;8.77;;;5.70;;
1993;SDS011;998;49.906;10.908;2024-03-23T10:50:03;7.70;;;5.03;;
1993;SDS011;998;49.906;10.908;2024-03-23T10:52:30;7.63;;;4.50;;
1993;SDS011;998;49.906;10.908;2024-03-23T10:54:58;13.00;;;9.63;;
1993;SDS011;998;49.906;10.908;2024-03-23T10:57:29;16.23;;;8.13;;
1993;SDS011;998;49.906;10.908;2024-03-23T11:00:02;12.70;;;9.50;;
1993;SDS011;998;49.906;10.908;2024-03-23T11:02:29;12.03;;;7.60;;
1993;SDS011;998;49.906;10.908;2024-03-23T11:04:56;15.97;;;7.93;;
1993;SDS011;998;49.906;10.908;2024-03-23T11:07:29;18.03;;;7.30;;
1993;SDS011;998;49.906;10.908;2024-03-23T11:09:58;9.13;;;6.00;;
1993;SDS011;998;49.906;10.908;2024-03-23T11:12:25;7.50;;;4.50;;
1993;SDS011;998;49.906;10.908;2024-03-23T11:15:01;11.17;;;5.20;;
1993;SDS011;998;49.906;10.908;2024-03-23T11:17:29;8.63;;;5.07;;
1993;SDS011;998;49.906;10.908;2024-03-23T11:19:57;9.87;;;6.60;;
1993;SDS011;998;49.906;10.908;2024-03-23T11:22:43;8.20;;;4.87;;
1993;SDS011;998;49.906;10.908;2024-03-23T11:25:12;10.30;;;5.90;;
1993;SDS011;998;49.906;10.908;2024-03-23T11:27:41;11.10;;;7.57;;
1993;SDS011;998;49.906;10.908;2024-03-23T11:30:12;9.00;;;5.30;;
1993;SDS011;998;49.906;10.908;2024-03-23T11:32:39;8.20;;;5.57;;
1993;SDS011;998;49.906;10.908;2024-03-23T11:35:07;12.63;;;7.90;;
1993;SDS011;998;49.906;10.908;2024-03-23T11:37:35;9.93;;;5.77;;
1993;SDS011;998;49.906;10.908;2024-03-23T11:40:19;10.90;;;7.20;;
1993;SDS011;998;49.906;10.908;2024-03-23T11:42:47;18.10;;;9.37;;
1993;SDS011;998;49.906;10.908;2024-03-23T11:45:22;14.40;;;8.90;;
1993;SDS011;998;49.906;10.908;2024-03-23T11:48:00;12.53;;;7.70;;
1993;SDS011;998;49.906;10.908;2024-03-23T11:50:32;18.43;;;8.10;;
1993;SDS011;998;49.906;10.908;2024-03-23T11:53:09;12.53;;;8.23;;
1993;SDS011;998;49.906;10.908;2024-03-23T11:55:44;11.73;;;7.13;;
1993;SDS011;998;49.906;10.908;2024-03-23T11:58:15;10.23;;;6.80;;
1993;SDS011;998;49.906;10.908;2024-03-23T12:00:49;8.97;;;6.40;;
1993;SDS011;998;49.906;10.908;2024-03-23T12:03:17;12.43;;;7.00;;
1993;SDS011;998;49.906;10.908;2024-03-23T12:05:47;11.67;;;5.03;;
1993;SDS011;998;49.906;10.908;2024-03-23T12:08:15;11.43;;;5.07;;
1993;SDS011;998;49.906;10.908;2024-03-23T12:10:47;15.03;;;6.13;;
1993;SDS011;998;49.906;10.908;2024-03-23T12:13:17;11.10;;;7.53;;
1993;SDS011;998;49.906;10.908;2024-03-23T12:15:49;10.20;;;7.30;;
1993;SDS011;998;49.906;10.908;2024-03-23T12:18:16;10.20;;;6.10;;
1993;SDS011;998;49.906;10.908;2024-03-23T12:20:49;13.80;;;5.20;;
1993;SDS011;998;49.906;10.908;2024-03-23T12:23:16;10.53;;;6.50;;
1993;SDS011;998;49.906;10.908;2024-03-23T12:25:43;6.80;;;4.40;;
1993;SDS011;998;49.906;10.908;2024-03-23T12:28:09;8.57;;;5.57;;
1993;SDS011;998;49.906;10.908;2024-03-23T12:30:39;8.10;;;3.53;;
1993;SDS011;998;49.906;10.908;2024-03-23T12:33:06;9.47;;;3.83;;
1993;SDS011;998;49.906;10.908;2024-03-23T12:35:33;10.27;;;6.47;;
1993;SDS011;998;49.906;10.908;2024-03-23T12:37:59;8.83;;;5.13;;
1993;SDS011;998;49.906;10.908;2024-03-23T12:40:27;9.00;;;5.13;;
1993;SDS011;998;49.906;10.908;2024-03-23T12:42:53;8.83;;;4.10;;
1993;SDS011;998;49.906;10.908;2024-03-23T12:45:21;7.00;;;4.60;;
1993;SDS011;998;49.906;10.908;2024-03-23T12:47:49;7.80;;;4.20;;
1993;SDS011;998;49.906;10.908;2024-03-23T12:50:17;8.30;;;4.70;;
1993;SDS011;998;49.906;10.908;2024-03-23T12:52:44;8.80;;;5.00;;
1993;SDS011;998;49.906;10.908;2024-03-23T12:55:11;6.60;;;3.53;;
1993;SDS011;998;49.906;10.908;2024-03-23T12:57:37;6.07;;;3.17;;
1993;SDS011;998;49.906;10.908;2024-03-23T13:00:06;7.70;;;4.10;;
1993;SDS011;998;49.906;10.908;2024-03-23T13:02:36;6.60;;;3.80;;
1993;SDS011;998;49.906;10.908;2024-03-23T13:05:06;11.13;;;7.87;;
1993;SDS011;998;49.906;10.908;2024-03-23T13:07:34;6.60;;;3.43;;
1993;SDS011;998;49.906;10.908;2024-03-23T13:10:03;7.53;;;4.50;;
1993;SDS011;998;49.906;10.908;2024-03-23T13:12:30;8.87;;;5.33;;
1993;SDS011;998;49.906;10.908;2024-03-23T13:14:58;12.00;;;4.50;;
1993;SDS011;998;49.906;10.908;2024-03-23T13:17:24;10.63;;;5.63;;
1993;SDS011;998;49.906;10.908;2024-03-23T13:19:53;15.83;;;9.80;;
1993;SDS011;998;49.906;10.908;2024-03-23T13:22:22;9.00;;;5.23;;
1993;SDS011;998;49.906;10.908;2024-03-23T13:24:49;11.13;;;7.37;;
1993;SDS011;998;49.906;10.908;2024-03-23T13:27:15;8.50;;;4.33;;
1993;SDS011;998;49.906;10.908;2024-03-23T13:29:43;8.30;;;4.57;;
1993;SDS011;998;49.906;10.908;2024-03-23T13:32:11;12.97;;;6.83;;
1993;SDS011;998;49.906;10.908;2024-03-23T13:34:39;9.73;;;6.13;;
1993;SDS011;998;49.906;10.908;2024-03-23T13:37:05;11.30;;;5.47;;
1993;SDS011;998;49.906;10.908;2024-03-23T13:39:34;15.47;;;6.13;;
1993;SDS011;998;49.906;10.908;2024-03-23T13:42:01;9.60;;;6.70;;
1993;SDS011;998;49.906;10.908;2024-03-23T13:44:28;8.03;;;4.70;;
1993;SDS011;998;49.906;10.908;2024-03-23T13:46:54;10.87;;;5.10;;
1993;SDS011;998;49.906;10.908;2024-03-23T13:49:26;6.50;;;4.33;;
1993;SDS011;998;49.906;10.908;2024-03-23T13:51:53;6.73;;;4.13;;
1993;SDS011;998;49.906;10.908;2024-03-23T13:54:22;7.07;;;3.47;;
1993;SDS011;998;49.906;10.908;2024-03-23T13:56:51;7.53;;;4.30;;
1993;SDS011;998;49.906;10.908;2024-03-23T13:59:19;11.50;;;6.20;;
1993;SDS011;998;49.906;10.908;2024-03-23T14:01:46;10.63;;;6.23;;
1993;SDS011;998;49.906;10.908;2024-03-23T14:04:13;6.10;;;3.80;;
1993;SDS011;998;49.906;10.908;2024-03-23T14:06:41;12.23;;;4.87;;
1993;SDS011;998;49.906;10.908;2024-03-23T14:09:10;8.13;;;4.83;;
1993;SDS011;998;49.906;10.908;2024-03-23T14:11:36;9.37;;;6.60;;
1993;SDS011;998;49.906;10.908;2024-03-23T14:14:07;7.00;;;4.40;;
1993;SDS011;998;49.906;10.908;2024-03-23T14:16:33;8.50;;;4.10;;
1993;SDS011;998;49.906;10.908;2024-03-23T14:19:00;6.50;;;4.00;;
1993;SDS011;998;49.906;10.908;2024-03-23T14:21:27;8.27;;;4.90;;
1993;SDS011;998;49.906;10.908;2024-03-23T14:23:54;9.80;;;5.77;;
1993;SDS011;998;49.906;10.908;2024-03-23T14:26:21;10.13;;;7.00;;
1993;SDS011;998;49.906;10.908;2024-03-23T14:28:48;10.70;;;5.07;;
1993;SDS011;998;49.906;10.908;2024-03-23T14:31:17;10.00;;;4.93;;
1993;SDS011;998;49.906;10.908;2024-03-23T14:33:44;9.27;;;5.17;;
1993;SDS011;998;49.906;10.908;2024-03-23T14:36:11;9.27;;;5.80;;
1993;SDS011;998;49.906;10.908;2024-03-23T14:38:39;5.80;;;3.40;;
1993;SDS011;998;49.906;10.908;2024-03-23T14:41:05;6.37;;;4.07;;
1993;SDS011;998;49.906;10.908;2024-03-23T14:43:33;8.60;;;5.43;;
1993;SDS011;998;49.906;10.908;2024-03-23T14:46:08;6.80;;;4.93;;
1993;SDS011;998;49.906;10.908;2024-03-23T14:48:39;10.30;;;6.70;;
1993;SDS011;998;49.906;10.908;2024-03-23T14:51:06;8.63;;;5.67;;
1993;SDS011;998;49.906;10.908;2024-03-23T14:53:34;11.07;;;5.53;;
1993;SDS011;998;49.906;10.908;2024-03-23T14:56:01;10.13;;;7.33;;
1993;SDS011;998;49.906;10.908;2024-03-23T14:58:29;16.60;;;8.53;;
1993;SDS011;998;49.906;10.908;2024-03-23T15:00:59;13.43;;;6.97;;
1993;SDS011;998;49.906;10.908;2024-03-23T15:03:27;10.50;;;6.87;;
1993;SDS011;998;49.906;10.908;2024-03-23T15:05:55;8.93;;;5.47;;
1993;SDS011;998;49.906;10.908;2024-03-23T15:08:23;7.93;;;4.30;;
1993;SDS011;998;49.906;10.908;2024-03-23T15:10:50;11.27;;;6.90;;
1993;SDS011;998;49.906;10.908;2024-03-23T15:13:17;11.60;;;7.33;;
1993;SDS011;998;49.906;10.908;2024-03-23T15:15:43;14.67;;;7.93;;
1993;SDS011;998;49.906;10.908;2024-03-23T15:18:13;9.27;;;6.80;;
1993;SDS011;998;49.906;10.908;2024-03-23T15:20:40;10.60;;;7.00;;
1993;SDS011;998;49.906;10.908;2024-03-23T15:23:09;11.67;;;7.40;;
1993;SDS011;998;49.906;10.908;2024-03-23T15:25:35;14.33;;;7.40;;
1993;SDS011;998;49.906;10.908;2024-03-23T15:28:03;13.97;;;9.33;;
1993;SDS011;998;49.906;10.908;2024-03-23T15:30:29;9.23;;;6.53;;
1993;SDS011;998;49.906;10.908;2024-03-23T15:32:57;9.00;;;4.87;;
1993;SDS011;998;49.906;10.908;2024-03-23T15:35:23;9.57;;;5.60;;
1993;SDS011;998;49.906;10.908;2024-03-23T15:37:50;8.97;;;5.57;;
1993;SDS011;998;49.906;10.908;2024-03-23T15:40:18;9.63;;;4.40;;
1993;SDS011;998;49.906;10.908;2024-03-23T15:42:45;11.07;;;6.93;;
1993;SDS011;998;49.906;10.908;2024-03-23T15:45:12;10.33;;;5.17;;
1993;SDS011;998;49.906;10.908;2024-03-23T15:47:39;11.60;;;6.67;;
1993;SDS011;998;49.906;10.908;2024-03-23T15:50:06;9.93;;;7.03;;
1993;SDS011;998;49.906;10.908;2024-03-23T15:52:35;11.13;;;7.43;;
1993;SDS011;998;49.906;10.908;2024-03-23T15:55:01;13.97;;;8.63;;
1993;SDS011;998;49.906;10.908;2024-03-23T15:57:33;7.23;;;4.77;;
1993;SDS011;998;49.906;10.908;2024-03-23T16:00:00;7.70;;;5.50;;